Time;durP1;ratioP1;P1;durP2;ratioP2;P2;SDS_P1;SDS_P2;PMS_P1;PMS_P2;Temp;Humidity;BMP_temperature;BMP_pressure;BME280_temperature;BME280_humidity;BME280_pressure;Samples;Min_cycle;Max_cycle;Signal;HPM_P1;HPM_P2
2023/09/26 00:02:44;;;;;;;30.63;7.15;;;17.40;90.50;;;;;;5028871;28;20045;-56
2023/09/26 00:05:11;;;;;;;31.13;5.90;;;17.40;90.50;;;;;;5060678;28;20377;-55
2023/09/26 00:07:36;;;;;;;20.70;5.88;;;17.40;90.50;;;;;;5028836;28;20037;-55
2023/09/26 00:10:06;;;;;;;30.42;6.18;;;17.40;90.50;;;;;;5060604;28;20018;-55
2023/09/26 00:12:32;;;;;;;29.92;6.40;;;17.30;90.40;;;;;;5059821;28;20390;-55
2023/09/26 00:14:57;;;;;;;17.33;5.35;;;17.30;90.50;;;;;;5028691;28;20037;-55
2023/09/26 00:17:23;;;;;;;29.33;6.03;;;17.30;90.50;;;;;;5059890;28;20026;-56
2023/09/26 00:19:49;;;;;;;22.27;5.85;;;17.30;90.60;;;;;;5043505;28;20481;-55
2023/09/26 00:22:14;;;;;;;32.13;5.35;;;17.20;90.60;;;;;;5028428;28;20037;-55
2023/09/26 00:24:40;;;;;;;24.85;6.00;;;17.20;90.60;;;;;;5060419;28;20045;-56
2023/09/26 00:27:05;;;;;;;16.67;5.45;;;17.20;90.60;;;;;;5060647;28;20034;-55
2023/09/26 00:29:33;;;;;;;22.02;5.45;;;17.10;90.60;;;;;;5028347;28;20099;-55
2023/09/26 00:31:59;;;;;;;21.23;5.10;;;17.10;90.60;;;;;;5059874;28;20037;-56
2023/09/26 00:34:25;;;;;;;20.58;5.35;;;17.10;90.70;;;;;;5028332;28;20034;-55
2023/09/26 00:36:51;;;;;;;18.02;5.13;;;17.10;91.00;;;;;;5060307;28;20034;-55
2023/09/26 00:39:16;;;;;;;18.02;5.47;;;17.00;90.70;;;;;;5028402;28;20025;-55
2023/09/26 00:41:42;;;;;;;17.83;5.25;;;17.00;90.70;;;;;;5026916;28;20394;-55
2023/09/26 00:44:08;;;;;;;13.52;4.93;;;17.00;90.80;;;;;;5060055;28;20030;-55
2023/09/26 00:46:33;;;;;;;19.95;4.63;;;17.00;90.80;;;;;;5059794;28;20030;-55
2023/09/26 00:49:00;;;;;;;20.52;5.20;;;17.00;90.80;;;;;;5059897;28;20030;-56
2023/09/26 00:51:26;;;;;;;19.77;5.32;;;17.00;90.80;;;;;;5043102;28;20026;-55
2023/09/26 00:53:51;;;;;;;14.07;4.68;;;16.90;90.80;;;;;;5059685;28;20053;-55
2023/09/26 00:56:17;;;;;;;24.25;4.55;;;16.90;90.90;;;;;;5043174;28;20030;-55
2023/09/26 00:58:42;;;;;;;17.73;5.28;;;16.90;90.90;;;;;;5059730;28;20038;-56
2023/09/26 01:01:08;;;;;;;13.80;4.70;;;16.90;90.80;;;;;;5043059;28;20046;-55
2023/09/26 01:03:33;;;;;;;22.23;4.55;;;16.90;90.90;;;;;;5043145;28;20029;-56
2023/09/26 01:06:01;;;;;;;15.65;4.55;;;16.90;90.90;;;;;;5059533;28;20080;-55
2023/09/26 01:08:26;;;;;;;11.32;3.85;;;16.80;90.90;;;;;;5042527;28;20025;-56
2023/09/26 01:10:52;;;;;;;17.67;4.80;;;16.80;91.00;;;;;;5059404;28;20494;-55
2023/09/26 01:13:17;;;;;;;17.92;4.82;;;16.80;91.00;;;;;;5043019;28;20475;-55
2023/09/26 01:15:43;;;;;;;14.73;4.55;;;16.80;91.00;;;;;;5059293;28;20057;-56
2023/09/26 01:18:13;;;;;;;15.35;4.40;;;16.80;91.00;;;;;;5027559;28;20076;-55
2023/09/26 01:20:45;;;;;;;13.82;4.32;;;16.70;91.00;;;;;;5059028;28;20085;-56
2023/09/26 01:23:12;;;;;;;12.68;4.35;;;16.70;91.00;;;;;;5026107;28;20038;-56
2023/09/26 01:25:38;;;;;;;15.30;4.30;;;16.70;91.00;;;;;;5042275;28;20030;-55
2023/09/26 01:28:07;;;;;;;12.13;4.00;;;16.70;91.10;;;;;;5025776;28;20053;-55
2023/09/26 01:30:42;;;;;;;15.25;4.22;;;16.60;91.10;;;;;;5025687;28;20052;-55
2023/09/26 01:33:08;;;;;;;10.60;3.53;;;16.70;91.40;;;;;;5060515;28;20018;-55
2023/09/26 01:35:34;;;;;;;11.20;4.18;;;16.60;91.10;;;;;;5058911;28;20037;-55
2023/09/26 01:38:00;;;;;;;13.05;3.92;;;16.60;91.20;;;;;;5028045;28;20041;-55
2023/09/26 01:40:25;;;;;;;11.23;3.78;;;16.60;91.20;;;;;;5059894;28;20057;-50
2023/09/26 01:42:51;;;;;;;14.38;4.13;;;16.60;91.20;;;;;;5060893;28;20030;-51
2023/09/26 01:45:17;;;;;;;10.68;3.35;;;16.60;91.20;;;;;;5028319;28;20485;-51
2023/09/26 01:47:49;;;;;;;12.68;3.63;;;16.50;91.10;;;;;;5060388;28;20037;-51
2023/09/26 01:50:16;;;;;;;12.98;4.20;;;16.50;91.10;;;;;;5059400;28;20026;-51
2023/09/26 01:52:41;;;;;;;11.20;3.80;;;16.50;91.20;;;;;;5026649;28;20099;-52
2023/09/26 01:55:11;;;;;;;12.10;4.05;;;16.50;91.20;;;;;;5027046;28;20051;-51
2023/09/26 01:57:36;;;;;;;11.23;3.85;;;16.50;91.20;;;;;;5024942;28;20045;-51
2023/09/26 02:00:11;;;;;;;10.40;3.40;;;16.40;91.20;;;;;;5026841;28;20026;-51
2023/09/26 02:02:41;;;;;;;11.27;4.00;;;16.40;91.60;;;;;;5041376;28;20022;-51
2023/09/26 02:05:07;;;;;;;9.73;3.42;;;16.40;91.30;;;;;;5026759;28;20064;-52
2023/09/26 02:07:33;;;;;;;9.93;3.45;;;16.40;91.30;;;;;;5041884;28;20026;-51
2023/09/26 02:09:59;;;;;;;10.00;3.88;;;16.40;91.30;;;;;;5058293;28;20064;-51
2023/09/26 02:12:24;;;;;;;7.97;3.63;;;16.40;91.30;;;;;;5027028;28;20022;-51
2023/09/26 02:14:50;;;;;;;11.77;3.45;;;16.40;91.40;;;;;;5025384;28;20120;-51
2023/09/26 02:17:15;;;;;;;7.90;3.40;;;16.30;91.40;;;;;;5058667;28;20025;-51
2023/09/26 02:19:41;;;;;;;10.70;3.30;;;16.30;91.40;;;;;;5058378;28;20038;-51
2023/09/26 02:22:07;;;;;;;7.47;3.15;;;16.30;91.50;;;;;;5026680;28;20037;-51
2023/09/26 02:24:32;;;;;;;6.35;3.35;;;16.30;91.50;;;;;;5041437;28;20351;-51
2023/09/26 02:26:58;;;;;;;9.80;3.22;;;16.30;91.50;;;;;;5041569;28;20038;-51
2023/09/26 02:29:24;;;;;;;8.77;3.20;;;16.30;91.50;;;;;;5026372;28;20026;-51
2023/09/26 02:31:49;;;;;;;9.32;2.88;;;16.20;91.40;;;;;;5026556;28;20034;-51
2023/09/26 02:34:15;;;;;;;7.57;3.13;;;16.20;91.40;;;;;;5026500;28;20034;-51
2023/09/26 02:36:40;;;;;;;9.50;3.20;;;16.20;91.40;;;;;;5026340;28;20089;-51
2023/09/26 02:39:06;;;;;;;9.65;3.10;;;16.20;91.50;;;;;;5041459;28;20030;-51
2023/09/26 02:41:32;;;;;;;6.07;3.03;;;16.20;91.50;;;;;;5057743;28;20077;-51
2023/09/26 02:43:58;;;;;;;8.32;3.30;;;16.40;91.60;;;;;;5041489;28;20034;-51
2023/09/26 02:46:24;;;;;;;6.07;2.80;;;16.10;91.50;;;;;;5024920;28;20102;-51
2023/09/26 02:48:50;;;;;;;8.10;2.55;;;16.10;91.60;;;;;;5041374;28;20022;-51
2023/09/26 02:51:15;;;;;;;7.38;3.10;;;16.10;91.60;;;;;;5057981;28;20034;-51
2023/09/26 02:53:41;;;;;;;6.10;3.00;;;16.10;91.70;;;;;;5041284;28;20030;-51
2023/09/26 02:56:10;;;;;;;7.68;3.10;;;16.00;91.60;;;;;;5026222;28;20040;-51
2023/09/26 02:58:35;;;;;;;7.97;3.00;;;16.00;91.70;;;;;;5041218;28;20022;-52
2023/09/26 03:01:01;;;;;;;6.50;2.75;;;16.00;91.60;;;;;;5057841;28;20437;-51
2023/09/26 03:03:27;;;;;;;6.50;3.03;;;16.00;91.70;;;;;;5057855;28;20026;-51
2023/09/26 03:05:55;;;;;;;7.00;3.00;;;16.00;91.70;;;;;;5024682;28;20486;-51
2023/09/26 03:08:21;;;;;;;6.72;3.25;;;16.00;91.70;;;;;;5057174;28;20018;-51
2023/09/26 03:10:47;;;;;;;8.27;3.40;;;16.00;91.70;;;;;;5026155;28;20030;-51
2023/09/26 03:13:15;;;;;;;7.43;3.90;;;16.00;91.70;;;;;;5057778;28;20022;-51
2023/09/26 03:15:41;;;;;;;5.28;2.92;;;15.90;91.70;;;;;;5057811;28;20470;-51
2023/09/26 03:18:07;;;;;;;7.65;4.00;;;15.90;91.70;;;;;;5026061;28;20227;-51
2023/09/26 03:20:37;;;;;;;7.20;3.75;;;16.00;91.80;;;;;;5025997;28;20034;-51
2023/09/26 03:23:02;;;;;;;4.88;3.25;;;15.90;91.70;;;;;;5025929;28;20053;-52
2023/09/26 03:25:32;;;;;;;6.88;3.92;;;15.90;91.70;;;;;;5025769;28;20041;-52
2023/09/26 03:28:00;;;;;;;7.07;3.70;;;15.90;91.80;;;;;;5057644;28;20030;-51
2023/09/26 03:30:25;;;;;;;8.73;4.05;;;15.90;92.10;;;;;;5025950;28;20086;-51
2023/09/26 03:32:51;;;;;;;8.07;4.03;;;15.90;91.80;;;;;;5025831;28;20081;-51
2023/09/26 03:35:16;;;;;;;7.90;3.95;;;15.90;91.80;;;;;;5024605;28;20061;-52
2023/09/26 03:37:42;;;;;;;9.20;4.45;;;15.90;91.80;;;;;;5025658;28;20034;-51
2023/09/26 03:40:08;;;;;;;10.57;3.80;;;15.90;91.90;;;;;;5025818;28;20030;-51
2023/09/26 03:42:34;;;;;;;7.68;3.85;;;15.80;91.90;;;;;;5025973;28;20109;-51
2023/09/26 03:45:00;;;;;;;5.80;3.70;;;15.80;91.90;;;;;;5057514;28;20034;-51
2023/09/26 03:47:25;;;;;;;7.75;3.92;;;15.80;92.00;;;;;;5040662;28;20026;-51
2023/09/26 03:49:52;;;;;;;5.45;3.63;;;15.80;92.00;;;;;;5025719;28;20033;-51
2023/09/26 03:52:18;;;;;;;6.47;3.30;;;15.80;92.00;;;;;;5058453;28;20029;-51
2023/09/26 03:54:43;;;;;;;8.07;4.10;;;15.80;92.00;;;;;;5060812;28;20022;-51
2023/09/26 03:57:09;;;;;;;8.48;3.88;;;15.80;92.10;;;;;;5029115;28;20489;-51
2023/09/26 03:59:34;;;;;;;7.00;3.65;;;15.70;92.10;;;;;;5044116;28;20030;-51
2023/09/26 04:02:00;;;;;;;6.28;3.60;;;15.70;92.10;;;;;;5061020;28;20033;-52
2023/09/26 04:04:26;;;;;;;8.00;3.80;;;15.80;92.10;;;;;;5060743;28;20091;-52
2023/09/26 04:06:51;;;;;;;6.57;3.88;;;15.70;92.10;;;;;;5028846;28;20033;-51
2023/09/26 04:09:17;;;;;;;5.57;3.65;;;15.70;92.10;;;;;;5028938;28;20086;-51
2023/09/26 04:11:43;;;;;;;6.20;3.40;;;15.70;92.10;;;;;;5044209;28;20032;-51
2023/09/26 04:14:09;;;;;;;4.72;3.33;;;15.70;92.10;;;;;;5060712;28;20492;-51
2023/09/26 04:16:34;;;;;;;5.05;3.10;;;15.70;92.20;;;;;;5027296;28;20041;-51
2023/09/26 04:19:00;;;;;;;5.93;3.35;;;15.70;92.20;;;;;;5028551;28;20145;-51
2023/09/26 04:21:25;;;;;;;6.68;3.45;;;15.70;92.20;;;;;;5061555;28;20026;-51
2023/09/26 04:23:51;;;;;;;7.60;2.97;;;15.60;92.20;;;;;;5060457;28;20501;-51
2023/09/26 04:26:17;;;;;;;5.13;3.30;;;15.60;92.20;;;;;;5044260;28;20030;-51
2023/09/26 04:28:44;;;;;;;4.72;3.15;;;15.60;92.20;;;;;;5028777;28;20026;-52
2023/09/26 04:31:17;;;;;;;5.38;3.10;;;15.60;92.10;;;;;;5028393;28;20038;-52
2023/09/26 04:33:43;;;;;;;5.60;3.40;;;15.60;92.10;;;;;;5060080;28;20018;-52
2023/09/26 04:36:09;;;;;;;5.53;3.65;;;15.60;92.10;;;;;;5028002;28;20312;-51
2023/09/26 04:38:34;;;;;;;8.90;4.03;;;15.60;92.20;;;;;;5059973;28;20022;-51
2023/09/26 04:41:02;;;;;;;9.35;3.88;;;15.60;92.20;;;;;;5026975;28;20033;-51
2023/09/26 04:43:28;;;;;;;9.65;4.80;;;15.50;92.20;;;;;;5026758;28;20041;-51
2023/09/26 04:45:54;;;;;;;7.18;4.00;;;15.50;92.20;;;;;;5059923;28;20034;-51
2023/09/26 04:48:19;;;;;;;8.90;4.40;;;15.50;92.20;;;;;;5026666;28;20057;-51
2023/09/26 04:50:45;;;;;;;7.47;4.05;;;15.50;92.20;;;;;;5059935;28;20018;-51
2023/09/26 04:53:11;;;;;;;7.75;3.92;;;15.50;92.30;;;;;;5059980;28;20040;-51
2023/09/26 04:55:36;;;;;;;9.27;3.83;;;15.50;92.20;;;;;;5026733;28;20398;-51
2023/09/26 04:58:02;;;;;;;9.05;4.30;;;15.50;92.20;;;;;;5059670;28;20034;-51
2023/09/26 05:00:30;;;;;;;6.80;4.13;;;15.50;92.30;;;;;;5027959;28;20060;-51
2023/09/26 05:02:56;;;;;;;8.40;4.00;;;15.50;92.30;;;;;;5042324;28;20061;-51
2023/09/26 05:05:22;;;;;;;6.22;4.28;;;15.50;92.40;;;;;;5060037;28;20026;-51
2023/09/26 05:07:49;;;;;;;7.60;3.95;;;15.50;92.30;;;;;;5027791;28;20038;-51
2023/09/26 05:10:14;;;;;;;8.52;3.70;;;15.40;92.30;;;;;;5042749;28;20044;-51
2023/09/26 05:12:40;;;;;;;6.30;3.72;;;15.40;92.40;;;;;;5059451;28;20033;-51
2023/09/26 05:15:12;;;;;;;5.60;3.50;;;15.40;92.40;;;;;;5059371;28;20022;-51
2023/09/26 05:17:39;;;;;;;4.03;3.20;;;15.40;92.40;;;;;;5027605;28;20109;-51
2023/09/26 05:20:08;;;;;;;6.07;3.63;;;15.40;92.30;;;;;;5027907;28;20101;-51
2023/09/26 05:22:34;;;;;;;5.75;3.83;;;15.40;92.30;;;;;;5042333;28;20033;-51
2023/09/26 05:24:59;;;;;;;6.72;3.83;;;15.40;92.30;;;;;;5027317;28;20041;-51
2023/09/26 05:27:25;;;;;;;6.57;3.63;;;15.40;92.30;;;;;;5059646;28;20090;-51
2023/09/26 05:29:50;;;;;;;5.43;3.33;;;15.30;92.30;;;;;;5059085;28;20037;-51
2023/09/26 05:32:16;;;;;;;5.78;3.40;;;15.40;92.30;;;;;;5042375;28;20034;-51
2023/09/26 05:34:41;;;;;;;6.45;3.17;;;15.40;92.30;;;;;;5042199;28;20037;-51
2023/09/26 05:37:07;;;;;;;6.35;3.42;;;15.30;92.30;;;;;;5025587;28;20037;-52
2023/09/26 05:39:32;;;;;;;6.28;3.83;;;15.30;92.30;;;;;;5025797;28;20036;-51
2023/09/26 05:41:58;;;;;;;7.97;3.60;;;15.30;92.30;;;;;;5027121;28;20037;-51
2023/09/26 05:44:23;;;;;;;8.27;3.50;;;15.30;92.30;;;;;;5027183;28;20026;-51
2023/09/26 05:46:49;;;;;;;6.90;3.70;;;15.30;92.30;;;;;;5058943;28;20038;-51
2023/09/26 05:49:14;;;;;;;9.32;3.42;;;15.30;92.30;;;;;;5042248;28;20086;-51
2023/09/26 05:51:40;;;;;;;6.72;3.75;;;15.30;92.30;;;;;;5025587;28;20036;-51
2023/09/26 05:54:06;;;;;;;7.50;3.63;;;15.30;92.30;;;;;;5027035;28;20026;-51
2023/09/26 05:56:32;;;;;;;7.07;3.28;;;15.30;92.30;;;;;;5058547;28;20030;-51
2023/09/26 05:58:57;;;;;;;10.93;3.58;;;15.30;92.40;;;;;;5058600;28;20525;-51
2023/09/26 06:01:23;;;;;;;8.00;3.28;;;15.20;92.40;;;;;;5058781;28;20057;-51
2023/09/26 06:03:48;;;;;;;7.68;3.00;;;15.30;92.50;;;;;;5029419;28;20027;-51
2023/09/26 06:06:14;;;;;;;6.80;3.45;;;15.20;92.50;;;;;;5038525;28;20118;-51
2023/09/26 06:08:39;;;;;;;8.40;3.40;;;15.20;92.60;;;;;;5021712;28;20031;-51
2023/09/26 06:11:05;;;;;;;9.57;3.33;;;15.20;92.60;;;;;;5038474;28;20034;-51
2023/09/26 06:13:31;;;;;;;10.23;3.83;;;15.20;92.70;;;;;;5037724;28;20022;-52
2023/09/26 06:15:56;;;;;;;10.90;3.70;;;15.20;92.70;;;;;;5020301;28;20037;-51
2023/09/26 06:18:22;;;;;;;8.63;3.75;;;15.10;92.80;;;;;;5005586;28;20086;-51
2023/09/26 06:20:48;;;;;;;9.13;3.55;;;15.10;92.80;;;;;;5020855;28;20038;-51
2023/09/26 06:23:13;;;;;;;13.93;4.20;;;15.10;92.80;;;;;;5046700;28;20060;-51
2023/09/26 06:25:39;;;;;;;18.00;4.15;;;15.10;92.80;;;;;;5024947;28;20470;-52
2023/09/26 06:28:05;;;;;;;13.82;4.25;;;15.10;92.90;;;;;;5045124;28;20049;-51
2023/09/26 06:30:30;;;;;;;11.50;4.20;;;15.10;93.00;;;;;;4996174;28;20026;-51
2023/09/26 06:32:56;;;;;;;17.42;4.65;;;15.10;93.00;;;;;;5026821;28;20048;-51
2023/09/26 06:35:21;;;;;;;13.77;4.78;;;15.10;93.00;;;;;;5038896;28;20056;-51
2023/09/26 06:37:47;;;;;;;18.58;5.20;;;15.10;93.10;;;;;;5035791;28;20049;-51
2023/09/26 06:40:12;;;;;;;21.90;5.13;;;15.10;93.20;;;;;;5037202;28;20029;-51
2023/09/26 06:42:38;;;;;;;30.13;5.00;;;15.10;93.20;;;;;;5020427;28;20121;-51
2023/09/26 06:45:04;;;;;;;25.65;5.07;;;15.20;93.30;;;;;;5032298;28;20034;-51
2023/09/26 06:47:30;;;;;;;21.25;5.82;;;15.20;93.30;;;;;;5035971;28;20037;-51
2023/09/26 06:49:56;;;;;;;160.88;22.40;;;15.20;93.40;;;;;;5012825;28;20061;-51
2023/09/26 06:52:22;;;;;;;40.40;7.82;;;15.20;93.40;;;;;;5030124;28;20030;-51
2023/09/26 06:54:48;;;;;;;73.07;9.48;;;15.20;93.50;;;;;;5002209;28;20141;-52
2023/09/26 06:57:17;;;;;;;28.00;6.13;;;15.20;93.50;;;;;;5038545;28;20038;-51
2023/09/26 06:59:48;;;;;;;30.08;6.68;;;15.20;93.50;;;;;;5041395;28;20026;-51
2023/09/26 07:02:14;;;;;;;26.90;5.97;;;15.20;93.50;;;;;;5009770;28;20090;-51
2023/09/26 07:04:39;;;;;;;51.65;7.68;;;15.20;93.50;;;;;;5030197;28;20038;-51
2023/09/26 07:07:05;;;;;;;117.40;14.75;;;15.20;93.60;;;;;;5038256;28;20030;-52
2023/09/26 07:09:30;;;;;;;61.70;9.43;;;15.30;93.60;;;;;;5028598;28;20036;-51
2023/09/26 07:11:56;;;;;;;40.17;7.30;;;15.30;93.70;;;;;;5023295;28;20041;-51
2023/09/26 07:14:22;;;;;;;35.08;7.85;;;15.40;93.80;;;;;;5023688;28;20489;-51
2023/09/26 07:16:47;;;;;;;35.42;6.82;;;15.30;93.90;;;;;;5029568;28;20026;-52
2023/09/26 07:19:13;;;;;;;50.08;8.15;;;15.30;94.00;;;;;;5044471;28;20024;-51
2023/09/26 07:21:39;;;;;;;34.03;7.70;;;15.30;94.10;;;;;;5043623;28;20551;-51
2023/09/26 07:24:05;;;;;;;29.65;7.00;;;15.40;94.20;;;;;;5021993;28;20026;-51
2023/09/26 07:26:32;;;;;;;28.30;6.93;;;15.40;94.30;;;;;;5057593;28;20030;-51
2023/09/26 07:28:57;;;;;;;29.70;8.23;;;15.40;94.20;;;;;;5026503;28;20053;-51
2023/09/26 07:31:23;;;;;;;34.05;7.85;;;15.40;94.30;;;;;;5024575;28;20022;-51
2023/09/26 07:33:49;;;;;;;39.47;8.52;;;15.40;94.30;;;;;;5022216;28;20017;-51
2023/09/26 07:36:15;;;;;;;79.60;13.60;;;15.40;94.30;;;;;;5058595;28;20030;-52
2023/09/26 07:38:40;;;;;;;53.33;9.15;;;15.50;94.40;;;;;;5026995;28;20037;-54
2023/09/26 07:41:06;;;;;;;55.13;8.85;;;15.50;94.50;;;;;;4994852;28;20065;-51
2023/09/26 07:43:34;;;;;;;43.85;8.85;;;15.50;94.50;;;;;;5028232;28;20025;-51
2023/09/26 07:46:07;;;;;;;56.55;9.32;;;15.50;94.50;;;;;;5022220;28;20060;-51
2023/09/26 07:48:33;;;;;;;49.58;8.63;;;15.60;94.60;;;;;;5042983;28;20556;-51
2023/09/26 07:50:58;;;;;;;33.83;7.97;;;15.60;94.80;;;;;;5027169;28;20081;-51
2023/09/26 07:53:24;;;;;;;46.20;8.00;;;15.60;94.90;;;;;;5061035;28;20084;-51
2023/09/26 07:55:49;;;;;;;43.15;8.88;;;15.60;95.00;;;;;;5030795;28;20386;-51
2023/09/26 07:58:16;;;;;;;36.22;8.52;;;15.60;95.00;;;;;;5009320;28;20034;-51
2023/09/26 08:00:42;;;;;;;38.95;7.95;;;15.70;95.10;;;;;;5023006;28;20028;-52
2023/09/26 08:03:08;;;;;;;36.70;8.48;;;15.70;95.10;;;;;;5043806;28;20080;-52
2023/09/26 08:05:33;;;;;;;47.80;9.13;;;15.70;95.10;;;;;;5059302;28;20029;-52
2023/09/26 08:08:03;;;;;;;52.85;9.20;;;15.70;95.20;;;;;;5043898;28;20188;-52
2023/09/26 08:10:29;;;;;;;35.88;8.07;;;15.70;95.20;;;;;;5043520;28;20026;-52
2023/09/26 08:12:54;;;;;;;35.97;8.02;;;15.70;95.20;;;;;;5060592;28;20033;-52
2023/09/26 08:15:20;;;;;;;47.55;7.85;;;15.70;95.20;;;;;;5059428;28;20549;-52
2023/09/26 08:17:45;;;;;;;32.05;8.45;;;15.80;95.30;;;;;;5027682;28;20056;-52
2023/09/26 08:20:11;;;;;;;32.30;7.72;;;15.80;95.30;;;;;;5043071;28;20485;-52
2023/09/26 08:22:37;;;;;;;38.15;7.78;;;15.80;95.30;;;;;;4993622;28;20034;-52
2023/09/26 08:25:03;;;;;;;40.33;8.68;;;15.80;95.30;;;;;;5026530;28;20030;-52
2023/09/26 08:27:30;;;;;;;53.42;9.73;;;15.80;95.20;;;;;;5024918;28;20129;-51
2023/09/26 08:29:56;;;;;;;43.20;9.73;;;15.80;95.20;;;;;;5028676;28;20033;-52
2023/09/26 08:32:22;;;;;;;69.25;11.05;;;15.80;95.20;;;;;;5038665;28;20022;-52
2023/09/26 08:34:47;;;;;;;45.90;10.15;;;15.90;95.60;;;;;;5043265;28;20021;-52
2023/09/26 08:37:14;;;;;;;65.38;11.85;;;15.90;95.30;;;;;;5023983;28;20053;-52
2023/09/26 08:39:39;;;;;;;73.85;12.30;;;15.80;95.40;;;;;;5048257;28;20038;-52
2023/09/26 08:42:05;;;;;;;58.80;12.13;;;15.90;95.60;;;;;;5044805;28;20077;-52
2023/09/26 08:44:31;;;;;;;58.95;11.77;;;15.90;95.70;;;;;;5036892;28;20041;-51
2023/09/26 08:46:57;;;;;;;62.17;13.68;;;15.90;95.60;;;;;;5025214;28;20500;-52
2023/09/26 08:49:22;;;;;;;61.97;12.57;;;15.90;95.90;;;;;;5033909;28;20031;-52
2023/09/26 08:51:48;;;;;;;58.13;11.75;;;16.00;96.20;;;;;;5020246;28;20029;-52
2023/09/26 08:54:13;;;;;;;62.10;12.63;;;16.00;95.70;;;;;;5023524;28;20466;-52
2023/09/26 08:56:39;;;;;;;59.75;12.40;;;15.90;95.60;;;;;;5035842;28;20044;-52
2023/09/26 08:59:05;;;;;;;48.65;13.02;;;16.00;95.40;;;;;;5037026;28;20030;-52
2023/09/26 09:01:31;;;;;;;65.68;12.40;;;16.00;95.30;;;;;;5022296;28;20034;-52
2023/09/26 09:03:56;;;;;;;66.70;13.48;;;16.00;95.40;;;;;;5050302;28;20038;-52
2023/09/26 09:06:22;;;;;;;57.00;11.13;;;16.00;95.40;;;;;;5024484;28;20052;-52
2023/09/26 09:08:48;;;;;;;60.78;12.32;;;16.00;95.30;;;;;;5050314;28;20026;-52
2023/09/26 09:11:13;;;;;;;68.65;13.25;;;16.00;95.60;;;;;;5024496;28;20038;-52
2023/09/26 09:13:39;;;;;;;51.20;12.73;;;16.10;95.70;;;;;;5025014;28;20026;-52
2023/09/26 09:16:18;;;;;;;57.00;12.43;;;16.10;95.80;;;;;;5008746;28;20481;-52
2023/09/26 09:18:47;;;;;;;63.13;12.27;;;16.10;95.90;;;;;;5062683;28;20033;-52
2023/09/26 09:21:22;;;;;;;53.45;11.00;;;16.10;96.10;;;;;;5015425;28;20034;-52
2023/09/26 09:23:49;;;;;;;50.80;11.45;;;16.10;96.20;;;;;;5025953;28;20025;-52
2023/09/26 09:26:15;;;;;;;49.97;11.23;;;16.10;95.90;;;;;;5025134;28;20490;-52
2023/09/26 09:28:40;;;;;;;43.70;12.48;;;16.10;96.20;;;;;;5024100;28;20075;-52
2023/09/26 09:31:06;;;;;;;44.03;10.82;;;16.10;96.10;;;;;;5041722;28;20095;-52
2023/09/26 09:33:31;;;;;;;53.05;11.88;;;16.20;96.10;;;;;;5027297;28;20029;-52
2023/09/26 09:35:57;;;;;;;37.55;10.85;;;16.20;96.00;;;;;;5024114;28;20026;-52
2023/09/26 09:38:23;;;;;;;45.55;12.32;;;16.30;96.20;;;;;;5020723;28;20034;-52
2023/09/26 09:40:48;;;;;;;44.00;11.82;;;16.30;96.40;;;;;;5031400;28;20030;-52
2023/09/26 09:43:14;;;;;;;46.38;11.43;;;16.30;96.30;;;;;;5015724;28;20034;-52
2023/09/26 09:45:40;;;;;;;48.08;11.43;;;16.20;96.30;;;;;;5025420;28;20030;-52
2023/09/26 09:48:06;;;;;;;45.03;11.48;;;16.30;96.50;;;;;;5024481;28;20038;-52
2023/09/26 09:50:32;;;;;;;37.47;9.98;;;16.30;96.60;;;;;;5039040;28;20028;-52
2023/09/26 09:53:00;;;;;;;62.17;12.25;;;16.30;96.60;;;;;;5023125;28;20057;-52
2023/09/26 09:55:29;;;;;;;64.88;13.75;;;16.30;96.70;;;;;;5025789;28;20033;-52
2023/09/26 09:57:56;;;;;;;56.25;10.65;;;16.40;96.90;;;;;;5039036;28;20046;-52
2023/09/26 10:00:24;;;;;;;57.30;11.38;;;16.40;96.70;;;;;;5024975;28;20536;-52
2023/09/26 10:02:54;;;;;;;56.95;11.43;;;16.40;96.70;;;;;;5006016;28;20029;-52
2023/09/26 10:05:19;;;;;;;68.65;13.30;;;16.50;96.70;;;;;;5023585;28;20030;-52
2023/09/26 10:07:45;;;;;;;78.82;13.35;;;16.50;96.60;;;;;;5007023;28;20556;-52
2023/09/26 10:10:12;;;;;;;74.00;13.60;;;16.50;96.70;;;;;;5019483;28;20086;-52
2023/09/26 10:12:40;;;;;;;77.07;13.70;;;16.50;96.80;;;;;;5038187;28;20410;-52
2023/09/26 10:15:11;;;;;;;73.00;14.07;;;16.50;96.80;;;;;;5006044;28;20037;-52
2023/09/26 10:17:41;;;;;;;101.13;14.35;;;16.50;96.80;;;;;;5036861;28;20100;-50
2023/09/26 10:20:10;;;;;;;64.13;13.32;;;16.60;96.70;;;;;;5047720;28;20033;-52
2023/09/26 10:22:38;;;;;;;78.85;13.77;;;16.60;96.70;;;;;;5023530;28;20370;-52
2023/09/26 10:25:04;;;;;;;70.10;13.48;;;16.60;96.60;;;;;;5024475;28;20026;-52
2023/09/26 10:27:30;;;;;;;39.75;10.77;;;16.70;96.60;;;;;;5011619;28;20058;-52
2023/09/26 10:29:55;;;;;;;55.55;11.73;;;16.70;96.50;;;;;;5022185;28;20030;-52
2023/09/26 10:32:31;;;;;;;55.00;11.60;;;16.70;96.40;;;;;;5033870;28;20034;-52
2023/09/26 10:34:58;;;;;;;70.78;11.65;;;16.70;96.40;;;;;;5023824;28;20034;-52
2023/09/26 10:37:27;;;;;;;80.43;13.50;;;16.80;96.40;;;;;;5035449;28;20041;-51
2023/09/26 10:39:53;;;;;;;68.00;13.23;;;16.80;96.20;;;;;;5035929;28;20031;-52
2023/09/26 10:42:22;;;;;;;87.13;13.50;;;16.90;96.20;;;;;;5022211;28;20030;-52
2023/09/26 10:44:51;;;;;;;72.22;11.43;;;16.90;96.10;;;;;;4992799;28;20597;-52
2023/09/26 10:47:17;;;;;;;71.72;13.27;;;16.90;96.00;;;;;;5029068;28;20038;-52
2023/09/26 10:49:45;;;;;;;86.97;12.95;;;17.00;95.90;;;;;;5017153;28;20047;-52
2023/09/26 10:52:11;;;;;;;70.97;12.85;;;17.00;95.90;;;;;;5024516;28;20023;-52
2023/09/26 10:54:39;;;;;;;75.50;13.63;;;17.00;95.90;;;;;;5025103;28;20094;-52
2023/09/26 10:57:04;;;;;;;64.72;12.63;;;17.10;95.90;;;;;;5023054;28;20038;-52
2023/09/26 10:59:30;;;;;;;62.00;13.50;;;17.10;95.80;;;;;;5020586;28;20037;-52
2023/09/26 11:01:56;;;;;;;57.25;12.68;;;17.10;95.70;;;;;;5024152;28;20098;-52
2023/09/26 11:04:29;;;;;;;50.40;12.07;;;17.10;95.70;;;;;;5012211;28;20048;-52
2023/09/26 11:06:59;;;;;;;71.13;13.13;;;17.20;95.70;;;;;;5021620;28;20061;-52
2023/09/26 11:09:25;;;;;;;85.60;15.10;;;17.20;95.60;;;;;;5035563;28;20025;-52
2023/09/26 11:11:51;;;;;;;81.45;12.98;;;17.30;95.70;;;;;;5035751;28;20022;-52
2023/09/26 11:14:17;;;;;;;78.60;13.55;;;17.30;95.60;;;;;;5028434;28;20026;-52
2023/09/26 11:16:43;;;;;;;66.70;13.63;;;17.30;95.50;;;;;;5043247;28;20113;-52
2023/09/26 11:19:12;;;;;;;65.93;12.70;;;17.40;95.80;;;;;;5028824;28;20033;-52
2023/09/26 11:21:37;;;;;;;82.13;15.98;;;17.40;95.60;;;;;;5027934;28;20052;-52
2023/09/26 11:24:29;;;;;;;86.03;13.77;;;17.50;95.70;;;;;;5046879;28;20038;-52
2023/09/26 11:26:56;;;;;;;80.63;14.82;;;17.50;95.50;;;;;;5026028;28;20026;-52
2023/09/26 11:29:23;;;;;;;76.00;14.73;;;17.50;95.40;;;;;;5035400;28;20022;-52
2023/09/26 11:31:48;;;;;;;66.15;12.57;;;17.50;95.40;;;;;;5012314;28;20076;-52
2023/09/26 11:34:17;;;;;;;100.85;14.00;;;17.60;95.30;;;;;;5032978;28;20470;-51
2023/09/26 11:36:43;;;;;;;101.50;16.08;;;17.70;95.20;;;;;;5057795;28;20482;-52
2023/09/26 11:39:22;;;;;;;82.65;14.18;;;17.70;95.20;;;;;;5026007;28;20078;-52
2023/09/26 11:42:10;;;;;;;78.30;13.98;;;17.70;95.20;;;;;;5022053;28;20034;-52
2023/09/26 11:44:36;;;;;;;111.70;17.45;;;17.80;95.10;;;;;;5024225;28;20025;-52
2023/09/26 11:47:03;;;;;;;78.53;14.35;;;17.80;95.30;;;;;;5050442;28;20589;-52
2023/09/26 11:49:30;;;;;;;105.15;15.50;;;17.80;94.90;;;;;;5024083;28;20053;-52
2023/09/26 11:51:55;;;;;;;87.50;14.30;;;17.90;94.80;;;;;;5026524;28;20041;-52
2023/09/26 11:54:21;;;;;;;93.03;15.68;;;17.90;94.70;;;;;;5026842;28;20026;-52
2023/09/26 11:56:47;;;;;;;86.57;14.68;;;18.00;94.50;;;;;;5035524;28;20080;-53
2023/09/26 11:59:13;;;;;;;85.15;14.25;;;18.00;94.40;;;;;;5026363;28;20137;-52
2023/09/26 12:01:41;;;;;;;66.93;14.07;;;18.10;94.30;;;;;;5050949;28;20069;-52
2023/09/26 12:04:09;;;;;;;109.25;17.45;;;18.20;94.20;;;;;;5063532;28;20639;-52
2023/09/26 12:06:34;;;;;;;97.13;14.98;;;18.20;94.10;;;;;;5010765;28;20033;-52
2023/09/26 12:09:00;;;;;;;76.72;14.40;;;18.20;94.10;;;;;;5037790;28;20032;-52
2023/09/26 12:11:26;;;;;;;86.53;13.95;;;18.30;94.00;;;;;;5031406;28;20105;-52
2023/09/26 12:13:55;;;;;;;68.80;13.52;;;18.30;93.90;;;;;;5045262;28;20076;-52
2023/09/26 12:16:20;;;;;;;106.38;16.27;;;18.40;93.80;;;;;;5030338;28;20044;-52
2023/09/26 12:18:46;;;;;;;76.43;13.80;;;18.40;93.70;;;;;;5035660;28;20478;-52
2023/09/26 12:21:12;;;;;;;58.85;12.95;;;18.50;93.60;;;;;;5023661;28;20502;-52
2023/09/26 12:23:37;;;;;;;73.88;12.77;;;18.50;93.50;;;;;;5042701;28;20096;-52
2023/09/26 12:26:03;;;;;;;86.78;14.07;;;18.60;93.30;;;;;;5026138;28;20042;-52
2023/09/26 12:28:28;;;;;;;104.55;15.18;;;18.70;93.20;;;;;;5035722;28;20029;-53
2023/09/26 12:30:54;;;;;;;93.50;13.68;;;18.70;93.10;;;;;;5026365;28;20018;-52
2023/09/26 12:33:21;;;;;;;80.88;15.18;;;18.80;92.90;;;;;;5023338;28;20030;-52